createdAt,value
2022-10-09T00:02:23.889Z,9.90
2022-10-09T00:05:31.370Z,9.50
2022-10-09T00:08:39.406Z,10.70
2022-10-09T00:11:46.012Z,9.90
2022-10-09T00:14:52.791Z,7.40
2022-10-09T00:17:59.400Z,8.50
2022-10-09T00:21:06.865Z,8.00
2022-10-09T00:24:15.715Z,12.60
2022-10-09T00:27:24.506Z,10.00
2022-10-09T00:30:31.876Z,8.70
2022-10-09T00:33:39.440Z,11.20
2022-10-09T00:36:48.410Z,6.60
2022-10-09T00:39:55.174Z,12.00
2022-10-09T00:43:02.308Z,10.70
2022-10-09T00:46:16.847Z,9.80
2022-10-09T00:49:28.999Z,6.80
2022-10-09T00:52:35.948Z,8.00
2022-10-09T00:55:44.060Z,7.90
2022-10-09T00:58:56.270Z,8.90
2022-10-09T01:02:03.518Z,7.80
2022-10-09T01:05:12.030Z,11.70
2022-10-09T01:08:26.244Z,6.40
2022-10-09T01:11:42.480Z,7.60
2022-10-09T01:14:57.873Z,8.00
2022-10-09T01:18:09.175Z,8.30
2022-10-09T01:21:19.681Z,9.40
2022-10-09T01:24:31.162Z,8.60
2022-10-09T01:27:39.072Z,5.20
2022-10-09T01:30:47.189Z,8.50
2022-10-09T01:33:53.998Z,9.20
2022-10-09T01:37:02.065Z,7.60
2022-10-09T01:40:12.064Z,10.00
2022-10-09T01:43:19.263Z,7.30
2022-10-09T01:46:29.211Z,9.00
2022-10-09T01:49:52.906Z,6.70
2022-10-09T01:53:02.302Z,9.70
2022-10-09T01:56:15.148Z,10.10
2022-10-09T01:59:23.457Z,10.60
2022-10-09T02:02:30.933Z,10.70
2022-10-09T02:05:38.530Z,8.90
2022-10-09T02:08:48.099Z,10.80
2022-10-09T02:11:58.627Z,6.80
2022-10-09T02:15:05.465Z,9.30
2022-10-09T02:18:16.005Z,8.60
2022-10-09T02:21:27.435Z,7.70
2022-10-09T02:24:34.876Z,10.90
2022-10-09T02:27:41.982Z,8.80
2022-10-09T02:30:55.625Z,7.30
2022-10-09T02:34:05.671Z,7.20
2022-10-09T02:37:12.351Z,9.70
2022-10-09T02:40:19.405Z,8.40
2022-10-09T02:43:26.117Z,10.80
2022-10-09T02:46:32.947Z,6.90
2022-10-09T02:49:40.062Z,6.20
2022-10-09T02:52:47.099Z,10.80
2022-10-09T02:55:53.994Z,10.40
2022-10-09T02:59:00.852Z,8.90
2022-10-09T03:02:07.723Z,8.50
2022-10-09T03:05:14.302Z,7.70
2022-10-09T03:08:20.865Z,6.10
2022-10-09T03:11:28.096Z,3.90
2022-10-09T03:14:35.284Z,8.20
2022-10-09T03:17:42.036Z,7.60
2022-10-09T03:20:49.097Z,8.80
2022-10-09T03:23:56.581Z,10.40
2022-10-09T03:27:03.257Z,9.40
2022-10-09T03:30:12.232Z,8.20
2022-10-09T03:33:18.790Z,9.00
2022-10-09T03:36:25.312Z,7.90
2022-10-09T03:39:32.332Z,10.60
2022-10-09T03:42:38.993Z,9.00
2022-10-09T03:45:45.812Z,8.00
2022-10-09T03:48:52.509Z,9.80
2022-10-09T03:51:59.075Z,8.70
2022-10-09T03:55:07.120Z,8.10
2022-10-09T03:58:13.908Z,7.00
2022-10-09T04:01:20.787Z,7.80
2022-10-09T04:04:28.052Z,6.20
2022-10-09T04:07:34.914Z,10.60
2022-10-09T04:10:41.561Z,5.90
2022-10-09T04:13:48.293Z,7.40
2022-10-09T04:16:55.070Z,9.90
2022-10-09T04:20:01.661Z,10.90
2022-10-09T04:23:08.233Z,4.90
2022-10-09T04:26:15.677Z,8.00
2022-10-09T04:29:22.380Z,10.10
2022-10-09T04:32:29.129Z,8.50
2022-10-09T04:35:35.583Z,11.80
2022-10-09T04:38:42.356Z,9.60
2022-10-09T04:41:49.007Z,7.20
2022-10-09T04:44:55.703Z,7.30
2022-10-09T04:48:02.599Z,9.00
2022-10-09T04:51:10.472Z,9.60
2022-10-09T04:54:17.036Z,10.70
2022-10-09T04:57:23.707Z,9.30
2022-10-09T05:00:30.298Z,8.90
2022-10-09T05:03:37.893Z,5.00
2022-10-09T05:06:44.452Z,4.10
2022-10-09T05:09:51.310Z,10.70
2022-10-09T05:12:57.809Z,9.50
2022-10-09T05:16:07.347Z,6.80
2022-10-09T05:22:19.197Z,14.40
2022-10-09T05:25:26.036Z,10.60
2022-10-09T05:28:33.093Z,8.70
2022-10-09T05:31:39.905Z,9.90
2022-10-09T05:34:46.616Z,14.70
2022-10-09T05:37:53.359Z,9.10
2022-10-09T05:41:01.349Z,12.90
2022-10-09T05:44:08.946Z,7.90
2022-10-09T05:47:17.981Z,7.70
2022-10-09T05:50:24.943Z,11.30
2022-10-09T05:53:32.090Z,7.20
2022-10-09T05:56:40.360Z,9.00
2022-10-09T05:59:47.294Z,7.60
2022-10-09T06:02:53.958Z,10.80
2022-10-09T06:06:03.753Z,7.50
2022-10-09T06:09:11.900Z,7.50
2022-10-09T06:12:18.531Z,9.40
2022-10-09T06:15:25.080Z,6.50
2022-10-09T06:18:31.686Z,10.50
2022-10-09T06:21:38.244Z,10.30
2022-10-09T06:24:44.960Z,11.10
2022-10-09T06:27:51.709Z,10.30
2022-10-09T06:31:03.669Z,6.10
2022-10-09T06:34:12.260Z,11.10
2022-10-09T06:37:18.759Z,8.60
2022-10-09T06:40:25.524Z,4.50
2022-10-09T06:43:32.273Z,8.80
2022-10-09T06:46:41.095Z,5.70
2022-10-09T06:49:47.698Z,7.10
2022-10-09T06:52:54.285Z,10.30
2022-10-09T06:56:01.026Z,9.50
2022-10-09T06:59:08.630Z,10.50
2022-10-09T07:02:15.288Z,7.10
2022-10-09T07:05:21.970Z,7.10
2022-10-09T07:08:28.669Z,6.40
2022-10-09T07:11:36.933Z,9.50
2022-10-09T07:14:43.537Z,8.20
2022-10-09T07:17:50.234Z,10.20
2022-10-09T07:20:57.302Z,6.50
2022-10-09T07:24:04.702Z,8.40
2022-10-09T07:27:11.364Z,10.70
2022-10-09T07:30:18.146Z,5.70
2022-10-09T07:33:24.813Z,8.70
2022-10-09T07:36:31.684Z,6.80
2022-10-09T07:39:42.894Z,9.00
2022-10-09T07:42:51.757Z,4.50
2022-10-09T07:46:02.275Z,9.10
2022-10-09T07:49:09.101Z,6.50
2022-10-09T07:52:15.765Z,8.20
2022-10-09T07:55:22.449Z,6.40
2022-10-09T07:58:29.096Z,11.30
2022-10-09T08:01:37.091Z,11.80
2022-10-09T08:04:43.682Z,7.40
2022-10-09T08:07:50.384Z,13.20
2022-10-09T08:10:57.142Z,9.40
2022-10-09T08:14:03.771Z,9.60
2022-10-09T08:17:10.465Z,10.60
2022-10-09T08:20:17.307Z,7.50
2022-10-09T08:23:23.943Z,11.50
2022-10-09T08:26:31.987Z,7.20
2022-10-09T08:29:40.376Z,12.10
2022-10-09T08:32:47.379Z,7.80
2022-10-09T08:35:55.128Z,10.60
2022-10-09T08:39:02.133Z,8.10
2022-10-09T08:42:19.378Z,8.30
2022-10-09T08:45:26.039Z,9.20
2022-10-09T08:48:37.973Z,6.80
2022-10-09T08:51:46.336Z,8.80
2022-10-09T08:54:54.119Z,12.10
2022-10-09T08:58:05.767Z,9.40
2022-10-09T09:01:22.583Z,7.20
2022-10-09T09:04:39.686Z,7.00
2022-10-09T09:07:55.799Z,12.60
2022-10-09T09:11:21.680Z,8.80
2022-10-09T09:14:43.551Z,10.90
2022-10-09T09:17:59.867Z,8.20
2022-10-09T09:21:14.691Z,6.00
2022-10-09T09:24:23.224Z,5.90
2022-10-09T09:27:33.197Z,10.40
2022-10-09T09:30:45.691Z,8.60
2022-10-09T09:33:58.606Z,8.00
2022-10-09T09:37:05.657Z,7.30
2022-10-09T09:40:36.184Z,7.00
2022-10-09T09:43:44.007Z,5.90
2022-10-09T09:46:51.863Z,7.60
2022-10-09T09:50:01.164Z,8.60
2022-10-09T09:56:15.667Z,2.40
2022-10-09T09:59:38.075Z,8.20
2022-10-09T10:02:44.904Z,11.60
2022-10-09T10:05:52.092Z,7.40
2022-10-09T10:09:03.865Z,4.10
2022-10-09T10:12:19.541Z,7.60
2022-10-09T10:15:29.757Z,4.90
2022-10-09T10:18:42.635Z,5.90
2022-10-09T10:21:56.287Z,8.10
2022-10-09T10:25:03.471Z,3.90
2022-10-09T10:28:19.101Z,5.70
2022-10-09T10:31:41.374Z,6.10
2022-10-09T10:34:53.696Z,5.40
2022-10-09T10:38:06.839Z,5.40
2022-10-09T10:41:21.044Z,5.70
2022-10-09T10:44:38.631Z,5.20
2022-10-09T10:47:50.223Z,5.40
2022-10-09T10:51:07.711Z,4.10
2022-10-09T10:54:29.542Z,4.40
2022-10-09T10:57:44.428Z,4.50
2022-10-09T11:01:05.413Z,6.20
2022-10-09T11:04:29.968Z,4.90
2022-10-09T11:07:43.114Z,4.00
2022-10-09T11:11:00.487Z,4.80
2022-10-09T11:14:20.197Z,4.20
2022-10-09T11:17:34.814Z,6.70
2022-10-09T11:20:56.217Z,1.70
2022-10-09T11:24:24.124Z,4.50
2022-10-09T11:27:39.061Z,5.30
2022-10-09T11:30:52.337Z,4.00
2022-10-09T11:34:04.548Z,7.00
2022-10-09T11:37:17.515Z,7.20
2022-10-09T11:40:27.767Z,6.20
2022-10-09T11:43:47.866Z,7.80
2022-10-09T11:47:02.025Z,7.10
2022-10-09T11:50:27.061Z,4.50
2022-10-09T11:53:37.000Z,6.50
2022-10-09T11:56:55.600Z,2.40
2022-10-09T12:00:11.254Z,4.00
2022-10-09T12:03:30.158Z,6.10
2022-10-09T12:06:48.349Z,6.90
2022-10-09T12:10:01.529Z,6.50
2022-10-09T12:13:28.313Z,8.10
2022-10-09T12:16:42.473Z,5.50
2022-10-09T12:19:51.207Z,9.10
2022-10-09T12:23:25.109Z,5.70
2022-10-09T12:26:29.070Z,4.80
2022-10-09T12:29:41.684Z,6.00
2022-10-09T12:32:52.674Z,3.80
2022-10-09T12:36:06.322Z,6.80
2022-10-09T12:39:20.425Z,6.00
2022-10-09T12:42:28.034Z,2.90
2022-10-09T12:45:34.931Z,4.90
2022-10-09T12:48:43.752Z,6.70
2022-10-09T12:51:56.430Z,3.20
2022-10-09T12:55:03.740Z,5.30
2022-10-09T12:58:17.609Z,7.90
2022-10-09T13:01:24.979Z,4.10
2022-10-09T13:04:34.964Z,4.30
2022-10-09T13:07:45.344Z,3.40
2022-10-09T13:10:55.690Z,5.50
2022-10-09T13:14:03.006Z,5.10
2022-10-09T13:17:26.525Z,4.90
2022-10-09T13:20:34.309Z,6.20
2022-10-09T13:23:40.937Z,4.90
2022-10-09T13:26:47.602Z,3.60
2022-10-09T13:29:54.275Z,4.50
2022-10-09T13:33:01.127Z,2.90
2022-10-09T13:36:08.611Z,6.10
2022-10-09T13:39:16.593Z,5.60
2022-10-09T13:42:25.139Z,5.10
2022-10-09T13:45:31.801Z,2.00
2022-10-09T13:48:39.594Z,2.80
2022-10-09T13:51:46.256Z,5.10
2022-10-09T13:54:52.776Z,5.60
2022-10-09T13:57:59.459Z,8.60
2022-10-09T14:01:06.301Z,6.70
2022-10-09T14:04:13.057Z,8.70
2022-10-09T14:07:19.664Z,7.50
2022-10-09T14:10:26.821Z,4.40
2022-10-09T14:13:33.492Z,4.50
2022-10-09T14:16:40.278Z,5.80
2022-10-09T14:19:46.871Z,6.10
2022-10-09T14:22:53.570Z,4.50
2022-10-09T14:26:05.144Z,11.10
2022-10-09T14:29:11.978Z,10.70
2022-10-09T14:32:18.619Z,14.80
2022-10-09T14:35:25.388Z,13.00
2022-10-09T14:38:32.015Z,4.00
2022-10-09T14:41:40.215Z,5.50
2022-10-09T14:44:46.819Z,2.00
2022-10-09T14:47:53.457Z,3.00
2022-10-09T14:51:04.830Z,3.30
2022-10-09T14:54:12.206Z,3.40
2022-10-09T14:57:19.254Z,6.10
2022-10-09T15:00:25.852Z,4.20
2022-10-09T15:03:33.264Z,4.00
2022-10-09T15:06:39.814Z,3.40
2022-10-09T15:09:46.479Z,3.50
2022-10-09T15:12:55.733Z,5.10
2022-10-09T15:16:03.947Z,5.80
2022-10-09T15:19:10.621Z,7.00
2022-10-09T15:22:17.409Z,8.20
2022-10-09T15:25:25.338Z,3.40
2022-10-09T15:28:32.017Z,5.00
2022-10-09T15:31:41.227Z,3.50
2022-10-09T15:37:55.679Z,2.70
2022-10-09T15:41:02.689Z,2.60
2022-10-09T15:44:14.204Z,3.50
2022-10-09T15:47:39.330Z,4.50
2022-10-09T15:50:51.643Z,5.70
2022-10-09T15:53:59.957Z,3.20
2022-10-09T15:57:09.665Z,5.30
2022-10-09T16:00:17.631Z,3.20
2022-10-09T16:03:24.145Z,2.10
2022-10-09T16:06:30.848Z,2.20
2022-10-09T16:09:38.009Z,5.30
2022-10-09T16:12:44.653Z,3.00
2022-10-09T16:15:51.573Z,3.00
2022-10-09T16:19:00.187Z,4.00
2022-10-09T16:22:07.021Z,3.80
2022-10-09T16:25:14.237Z,6.70
2022-10-09T16:28:20.883Z,5.50
2022-10-09T16:31:31.409Z,9.80
2022-10-09T16:34:38.142Z,9.90
2022-10-09T16:37:45.064Z,12.70
2022-10-09T16:41:07.862Z,11.60
2022-10-09T16:44:17.009Z,10.50
2022-10-09T16:47:23.596Z,9.60
2022-10-09T16:50:30.501Z,12.10
2022-10-09T16:53:37.430Z,13.10
2022-10-09T16:56:45.889Z,13.00
2022-10-09T16:59:52.540Z,15.30
2022-10-09T17:02:59.719Z,18.20
2022-10-09T17:06:12.097Z,22.20
2022-10-09T17:09:18.833Z,27.30
2022-10-09T17:12:25.438Z,23.00
2022-10-09T17:15:32.140Z,26.50
2022-10-09T17:18:39.622Z,21.50
2022-10-09T17:21:46.353Z,26.60
2022-10-09T17:24:53.100Z,23.70
2022-10-09T17:28:01.415Z,29.80
2022-10-09T17:31:16.272Z,26.80
2022-10-09T17:34:23.554Z,26.60
2022-10-09T17:37:30.107Z,30.10
2022-10-09T17:40:40.116Z,33.50
2022-10-09T17:43:47.049Z,31.60
2022-10-09T17:46:53.942Z,29.50
2022-10-09T17:50:00.616Z,31.10
2022-10-09T17:53:07.684Z,31.30
2022-10-09T17:56:15.341Z,30.30
2022-10-09T17:59:22.062Z,32.60
2022-10-09T18:02:28.847Z,31.40
2022-10-09T18:05:41.392Z,30.20
2022-10-09T18:08:48.368Z,32.20
2022-10-09T18:11:54.956Z,32.80
2022-10-09T18:15:02.813Z,36.90
2022-10-09T18:18:12.690Z,37.20
2022-10-09T18:21:19.621Z,34.40
2022-10-09T18:24:26.343Z,31.80
2022-10-09T18:27:33.431Z,29.00
2022-10-09T18:30:46.068Z,31.80
2022-10-09T18:33:53.601Z,31.00
2022-10-09T18:37:00.271Z,34.90
2022-10-09T18:40:10.773Z,33.90
2022-10-09T18:43:17.348Z,33.90
2022-10-09T18:46:26.599Z,32.00
2022-10-09T18:49:33.724Z,32.50
2022-10-09T18:52:42.699Z,35.20
2022-10-09T18:55:49.399Z,39.40
2022-10-09T18:58:56.481Z,37.30
2022-10-09T19:02:03.131Z,31.80
2022-10-09T19:05:10.771Z,34.10
2022-10-09T19:08:17.563Z,34.40
2022-10-09T19:11:24.214Z,31.80
2022-10-09T19:14:30.948Z,32.90
2022-10-09T19:17:37.657Z,29.20
2022-10-09T19:20:44.357Z,30.50
2022-10-09T19:23:52.219Z,32.60
2022-10-09T19:26:59.427Z,33.30
2022-10-09T19:30:07.655Z,29.20
2022-10-09T19:33:14.607Z,29.20
2022-10-09T19:36:24.119Z,28.50
2022-10-09T19:42:36.061Z,34.20
2022-10-09T19:45:43.189Z,33.40
2022-10-09T19:48:49.791Z,30.70
2022-10-09T19:51:56.819Z,31.40
2022-10-09T19:55:03.572Z,31.70
2022-10-09T19:58:10.303Z,30.80
2022-10-09T20:01:19.116Z,27.90
2022-10-09T20:04:26.045Z,29.40
2022-10-09T20:07:34.243Z,29.20
2022-10-09T20:10:41.697Z,33.50
2022-10-09T20:13:54.842Z,34.80
2022-10-09T20:17:03.108Z,34.00
2022-10-09T20:20:11.269Z,34.60
2022-10-09T20:23:18.073Z,31.90
2022-10-09T20:26:25.158Z,33.50
2022-10-09T20:29:31.810Z,31.10
2022-10-09T20:32:38.309Z,38.80
2022-10-09T20:35:45.813Z,31.30
2022-10-09T20:38:54.726Z,31.50
2022-10-09T20:42:01.258Z,34.90
2022-10-09T20:45:09.125Z,32.70
2022-10-09T20:48:15.721Z,32.40
2022-10-09T20:51:23.471Z,34.50
2022-10-09T20:54:30.437Z,34.10
2022-10-09T20:57:37.118Z,36.20
2022-10-09T21:00:45.523Z,40.40
2022-10-09T21:03:52.698Z,36.80
2022-10-09T21:06:59.443Z,38.30
2022-10-09T21:10:07.299Z,36.60
2022-10-09T21:13:14.443Z,36.50
2022-10-09T21:16:23.118Z,31.40
2022-10-09T21:19:30.201Z,27.80
2022-10-09T21:22:36.981Z,26.30
2022-10-09T21:25:49.427Z,31.60
2022-10-09T21:28:59.685Z,40.20
2022-10-09T21:32:07.089Z,45.60
2022-10-09T21:35:13.644Z,37.20
2022-10-09T21:38:21.773Z,37.80
2022-10-09T21:41:29.041Z,29.70
2022-10-09T21:44:35.820Z,24.20
2022-10-09T21:47:42.318Z,26.50
2022-10-09T21:50:48.831Z,29.40
2022-10-09T21:53:58.810Z,30.00
2022-10-09T21:57:05.845Z,25.90
2022-10-09T22:00:14.480Z,30.20
2022-10-09T22:03:21.159Z,29.80
2022-10-09T22:06:27.982Z,26.40
2022-10-09T22:09:34.874Z,23.60
2022-10-09T22:12:41.643Z,26.60
2022-10-09T22:15:51.196Z,25.40
2022-10-09T22:18:58.441Z,24.80
2022-10-09T22:22:05.617Z,25.90
2022-10-09T22:25:12.433Z,31.00
2022-10-09T22:28:21.916Z,36.20
2022-10-09T22:34:35.420Z,29.90
2022-10-09T22:37:42.020Z,29.50
2022-10-09T22:40:48.543Z,29.10
2022-10-09T22:43:57.501Z,24.90
2022-10-09T22:47:04.426Z,25.20
2022-10-09T22:50:12.164Z,26.90
2022-10-09T22:53:18.826Z,27.00
2022-10-09T22:56:28.708Z,25.60
2022-10-09T22:59:35.928Z,27.80
2022-10-09T23:02:42.616Z,34.20
2022-10-09T23:05:49.346Z,25.70
2022-10-09T23:08:56.039Z,27.10
2022-10-09T23:12:03.041Z,24.60
2022-10-09T23:15:11.380Z,23.60
2022-10-09T23:18:18.029Z,25.10
2022-10-09T23:21:25.375Z,24.50
2022-10-09T23:24:32.108Z,27.80
2022-10-09T23:27:38.805Z,27.30
2022-10-09T23:30:45.515Z,27.00
2022-10-09T23:33:52.183Z,27.80
2022-10-09T23:36:58.945Z,27.00
2022-10-09T23:40:06.564Z,27.50
2022-10-09T23:43:13.229Z,29.70
2022-10-09T23:46:22.380Z,25.50
2022-10-09T23:49:29.077Z,21.80
2022-10-09T23:52:37.588Z,26.30
2022-10-09T23:55:44.505Z,28.20
2022-10-09T23:58:52.731Z,31.00
